Time;durP1;ratioP1;P1;durP2;ratioP2;P2;SDS_P1;SDS_P2;PMS_P1;PMS_P2;Temp;Humidity;BMP_temperature;BMP_pressure;BME280_temperature;BME280_humidity;BME280_pressure;Samples;Min_cycle;Max_cycle;Signal;HPM_P1;HPM_P2
2022/07/13 00:01:47;;;;;;;3.17;1.38;;;;;;;;;;4991079;28;20127;-54
2022/07/13 00:04:13;;;;;;;1.65;0.90;;;;;;;;;;4991182;28;20511;-56
2022/07/13 00:06:39;;;;;;;0.90;0.60;;;;;;;;;;4989489;28;20034;-56
2022/07/13 00:09:05;;;;;;;0.90;0.68;;;;;;;;;;4991528;28;20026;-56
2022/07/13 00:11:31;;;;;;;0.85;0.60;;;;;;;;;;4991332;28;20084;-49
2022/07/13 00:13:57;;;;;;;0.88;0.60;;;;;;;;;;4990277;28;20030;-55
2022/07/13 00:16:23;;;;;;;1.55;0.73;;;;;;;;;;4991449;28;20026;-57
2022/07/13 00:18:49;;;;;;;3.53;0.75;;;;;;;;;;4991023;28;20088;-57
2022/07/13 00:21:15;;;;;;;1.30;0.70;;;;;;;;;;4991267;28;20030;-57
2022/07/13 00:23:42;;;;;;;1.88;0.60;;;;;;;;;;4972380;28;20046;-57
2022/07/13 00:26:09;;;;;;;1.83;0.88;;;;;;;;;;4991565;28;20481;-57
2022/07/13 00:28:35;;;;;;;0.98;0.70;;;;;;;;;;4990382;28;20026;-55
2022/07/13 00:31:01;;;;;;;1.98;0.60;;;;;;;;;;4990940;28;20077;-56
2022/07/13 00:33:27;;;;;;;0.88;0.70;;;;;;;;;;4990597;28;20446;-57
2022/07/13 00:35:53;;;;;;;1.17;0.75;;;;;;;;;;4991088;28;20035;-57
2022/07/13 00:38:19;;;;;;;3.15;0.70;;;;;;;;;;4991274;28;20037;-53
2022/07/13 00:40:45;;;;;;;2.38;0.55;;;;;;;;;;4990815;28;20025;-57
2022/07/13 00:43:11;;;;;;;1.00;0.80;;;;;;;;;;4990566;28;20064;-57
2022/07/13 00:45:37;;;;;;;1.38;0.98;;;;;;;;;;4990703;28;20080;-57
2022/07/13 00:48:03;;;;;;;0.82;0.60;;;;;;;;;;4991320;28;20045;-57
2022/07/13 00:50:29;;;;;;;3.17;0.77;;;;;;;;;;4990302;28;20097;-50
2022/07/13 00:52:55;;;;;;;1.00;0.90;;;;;;;;;;4990185;28;20058;-57
2022/07/13 00:55:21;;;;;;;1.48;1.00;;;;;;;;;;4991156;28;20050;-57
2022/07/13 00:57:47;;;;;;;2.03;0.80;;;;;;;;;;4990811;28;20042;-57
2022/07/13 01:00:14;;;;;;;1.02;0.80;;;;;;;;;;4990944;28;20026;-57
2022/07/13 01:02:41;;;;;;;0.68;0.65;;;;;;;;;;4989155;28;20104;-56
2022/07/13 01:05:07;;;;;;;1.42;0.63;;;;;;;;;;4991362;28;20023;-57
2022/07/13 01:07:33;;;;;;;0.82;0.57;;;;;;;;;;4989535;28;20066;-57
2022/07/13 01:10:00;;;;;;;2.70;0.90;;;;;;;;;;4990390;28;20031;-56
2022/07/13 01:12:29;;;;;;;1.00;0.90;;;;;;;;;;4991083;28;20026;-56
2022/07/13 01:14:55;;;;;;;1.08;0.98;;;;;;;;;;4990815;28;20499;-57
2022/07/13 01:17:21;;;;;;;1.83;0.70;;;;;;;;;;4988316;28;20483;-53
2022/07/13 01:19:48;;;;;;;1.05;0.60;;;;;;;;;;4989349;28;20026;-56
2022/07/13 01:22:16;;;;;;;1.33;0.60;;;;;;;;;;4989478;28;20022;-57
2022/07/13 01:24:42;;;;;;;1.20;0.82;;;;;;;;;;4990509;28;20073;-58
2022/07/13 01:27:08;;;;;;;1.05;0.82;;;;;;;;;;4994403;28;20140;-57
2022/07/13 01:29:34;;;;;;;2.05;0.70;;;;;;;;;;4992597;28;20029;-57
2022/07/13 01:32:01;;;;;;;1.83;0.80;;;;;;;;;;4994708;28;20030;-57
2022/07/13 01:34:27;;;;;;;1.70;0.90;;;;;;;;;;4976007;28;20073;-55
2022/07/13 01:36:53;;;;;;;1.15;0.70;;;;;;;;;;4994240;28;20042;-58
2022/07/13 01:39:19;;;;;;;1.77;1.30;;;;;;;;;;4994520;28;20442;-56
2022/07/13 01:41:45;;;;;;;2.28;0.75;;;;;;;;;;4992183;28;20137;-55
2022/07/13 01:44:11;;;;;;;0.90;0.68;;;;;;;;;;4994746;28;20102;-57
2022/07/13 01:46:37;;;;;;;0.73;0.55;;;;;;;;;;4993128;28;20038;-57
2022/07/13 01:49:03;;;;;;;1.45;0.63;;;;;;;;;;4994721;28;20088;-56
2022/07/13 01:51:29;;;;;;;1.77;0.65;;;;;;;;;;4992678;28;20050;-50
2022/07/13 01:53:56;;;;;;;2.72;0.60;;;;;;;;;;4993768;28;20060;-56
2022/07/13 01:56:21;;;;;;;1.02;0.68;;;;;;;;;;4993093;28;20105;-57
2022/07/13 01:58:47;;;;;;;2.08;0.70;;;;;;;;;;4993378;28;20622;-56
2022/07/13 02:01:14;;;;;;;1.27;0.70;;;;;;;;;;4992782;28;20073;-56
2022/07/13 02:03:40;;;;;;;1.50;0.77;;;;;;;;;;4993288;28;20101;-56
2022/07/13 02:06:06;;;;;;;1.60;0.93;;;;;;;;;;4994152;28;20026;-57
2022/07/13 02:08:32;;;;;;;1.38;0.70;;;;;;;;;;4993195;28;20022;-50
2022/07/13 02:10:58;;;;;;;0.95;0.60;;;;;;;;;;4992660;28;20472;-55
2022/07/13 02:13:24;;;;;;;1.88;0.80;;;;;;;;;;4993535;28;20030;-57
2022/07/13 02:15:50;;;;;;;1.02;0.75;;;;;;;;;;4992440;28;20031;-56
2022/07/13 02:18:16;;;;;;;1.05;0.60;;;;;;;;;;4976059;28;20038;-56
2022/07/13 02:20:43;;;;;;;2.47;0.65;;;;;;;;;;4992558;28;20030;-56
2022/07/13 02:23:09;;;;;;;1.30;0.80;;;;;;;;;;4993493;28;20025;-56
2022/07/13 02:25:37;;;;;;;1.00;0.90;;;;;;;;;;4992926;28;20102;-56
2022/07/13 02:28:03;;;;;;;1.10;0.80;;;;;;;;;;4992790;28;20038;-55
2022/07/13 02:30:29;;;;;;;1.00;0.73;;;;;;;;;;4991168;28;20022;-50
2022/07/13 02:32:55;;;;;;;1.33;0.80;;;;;;;;;;4992715;28;20060;-57
2022/07/13 02:35:21;;;;;;;2.45;0.75;;;;;;;;;;4993976;28;20018;-56
2022/07/13 02:37:47;;;;;;;2.00;0.85;;;;;;;;;;4991426;28;20084;-52
2022/07/13 02:40:13;;;;;;;0.90;0.60;;;;;;;;;;4993229;28;20113;-53
2022/07/13 02:42:39;;;;;;;0.90;0.60;;;;;;;;;;4992602;28;20468;-57
2022/07/13 02:45:06;;;;;;;0.93;0.50;;;;;;;;;;4993389;28;20054;-55
2022/07/13 02:47:32;;;;;;;0.60;0.60;;;;;;;;;;4992512;28;20158;-46
2022/07/13 02:49:58;;;;;;;0.98;0.63;;;;;;;;;;4992419;28;20487;-56
2022/07/13 02:52:24;;;;;;;2.17;0.60;;;;;;;;;;4992875;28;20110;-57
2022/07/13 02:54:50;;;;;;;0.45;0.40;;;;;;;;;;4992415;28;20109;-57
2022/07/13 02:57:16;;;;;;;0.75;0.50;;;;;;;;;;4993019;28;20033;-57
2022/07/13 02:59:41;;;;;;;1.70;0.57;;;;;;;;;;4991240;28;20022;-56
2022/07/13 03:02:08;;;;;;;2.25;0.65;;;;;;;;;;4992888;28;20500;-56
2022/07/13 03:04:34;;;;;;;2.50;0.50;;;;;;;;;;4991520;28;20075;-57
2022/07/13 03:07:01;;;;;;;0.60;0.57;;;;;;;;;;4993062;28;20050;-56
2022/07/13 03:09:27;;;;;;;1.40;0.93;;;;;;;;;;4992956;28;20030;-56
2022/07/13 03:11:53;;;;;;;1.00;0.60;;;;;;;;;;4991450;28;20030;-57
2022/07/13 03:14:19;;;;;;;1.00;0.68;;;;;;;;;;4992743;28;20106;-56
2022/07/13 03:16:45;;;;;;;1.20;0.70;;;;;;;;;;4990028;28;20060;-56
2022/07/13 03:19:11;;;;;;;0.77;0.70;;;;;;;;;;4992018;28;20034;-56
2022/07/13 03:21:37;;;;;;;0.88;0.60;;;;;;;;;;4991501;28;20022;-57
2022/07/13 03:24:03;;;;;;;0.70;0.57;;;;;;;;;;4992939;28;20038;-57
2022/07/13 03:26:30;;;;;;;1.50;0.82;;;;;;;;;;4991735;28;20049;-49
2022/07/13 03:28:56;;;;;;;0.80;0.57;;;;;;;;;;4991822;28;20030;-57
2022/07/13 03:31:22;;;;;;;1.10;0.75;;;;;;;;;;4989627;28;20037;-54
2022/07/13 03:33:48;;;;;;;0.57;0.40;;;;;;;;;;4988421;28;20027;-57
2022/07/13 03:36:14;;;;;;;1.52;0.60;;;;;;;;;;4989391;28;20061;-56
2022/07/13 03:38:40;;;;;;;1.20;0.80;;;;;;;;;;4986539;28;20116;-57
2022/07/13 03:41:06;;;;;;;1.52;0.68;;;;;;;;;;4988201;28;20025;-56
2022/07/13 03:43:32;;;;;;;1.40;0.80;;;;;;;;;;4985897;28;20431;-55
2022/07/13 03:45:58;;;;;;;2.25;0.60;;;;;;;;;;4989999;28;20088;-56
2022/07/13 03:48:24;;;;;;;0.85;0.60;;;;;;;;;;4988006;28;20030;-57
2022/07/13 03:50:50;;;;;;;0.90;0.70;;;;;;;;;;4993975;28;20038;-56
2022/07/13 03:53:16;;;;;;;0.55;0.47;;;;;;;;;;5011227;28;20030;-57
2022/07/13 03:55:43;;;;;;;1.38;0.90;;;;;;;;;;5009774;28;20475;-54
2022/07/13 03:58:10;;;;;;;0.93;0.80;;;;;;;;;;5003747;28;20029;-57
2022/07/13 04:00:36;;;;;;;1.27;0.70;;;;;;;;;;5008170;28;20026;-56
2022/07/13 04:03:02;;;;;;;1.30;0.88;;;;;;;;;;5010338;28;20505;-58
2022/07/13 04:05:28;;;;;;;0.52;0.52;;;;;;;;;;5011399;28;20026;-49
2022/07/13 04:07:54;;;;;;;0.47;0.40;;;;;;;;;;5010120;28;20075;-57
2022/07/13 04:10:21;;;;;;;0.98;0.65;;;;;;;;;;5011253;28;20029;-57
2022/07/13 04:12:47;;;;;;;1.58;0.82;;;;;;;;;;5009399;28;20030;-57
2022/07/13 04:15:13;;;;;;;1.13;0.77;;;;;;;;;;5011587;28;20032;-57
2022/07/13 04:17:39;;;;;;;1.05;0.57;;;;;;;;;;5009749;28;20034;-57
2022/07/13 04:20:06;;;;;;;2.03;0.70;;;;;;;;;;5011082;28;20103;-57
2022/07/13 04:22:32;;;;;;;1.45;0.73;;;;;;;;;;5010172;28;20471;-53
2022/07/13 04:24:58;;;;;;;0.82;0.57;;;;;;;;;;5007833;28;20085;-56
2022/07/13 04:27:24;;;;;;;1.13;0.77;;;;;;;;;;5010296;28;20029;-57
2022/07/13 04:29:50;;;;;;;0.57;0.52;;;;;;;;;;5009434;28;20645;-57
2022/07/13 04:32:16;;;;;;;1.67;0.70;;;;;;;;;;5011291;28;20053;-57
2022/07/13 04:34:42;;;;;;;0.85;0.63;;;;;;;;;;5010425;28;20451;-56
2022/07/13 04:37:08;;;;;;;1.20;0.60;;;;;;;;;;5010215;28;20132;-57
2022/07/13 04:39:34;;;;;;;0.65;0.50;;;;;;;;;;5005914;28;20029;-57
2022/07/13 04:42:00;;;;;;;2.67;1.27;;;;;;;;;;5009435;28;20030;-56
2022/07/13 04:44:27;;;;;;;2.78;0.60;;;;;;;;;;5010668;28;20081;-56
2022/07/13 04:46:55;;;;;;;0.73;0.50;;;;;;;;;;5010364;28;20111;-57
2022/07/13 04:49:22;;;;;;;0.90;0.80;;;;;;;;;;5010111;28;20029;-57
2022/07/13 04:51:48;;;;;;;0.90;0.75;;;;;;;;;;4993033;28;20781;-57
2022/07/13 04:54:18;;;;;;;1.52;0.60;;;;;;;;;;4989791;28;20042;-57
2022/07/13 04:56:44;;;;;;;0.80;0.60;;;;;;;;;;4986155;28;20054;-56
2022/07/13 04:59:10;;;;;;;1.58;0.88;;;;;;;;;;4991194;28;20429;-57
2022/07/13 05:01:36;;;;;;;0.75;0.60;;;;;;;;;;4993511;28;20033;-57
2022/07/13 05:04:03;;;;;;;0.90;0.70;;;;;;;;;;4992925;28;20502;-57
2022/07/13 05:06:30;;;;;;;1.17;0.77;;;;;;;;;;4993853;28;20034;-50
2022/07/13 05:08:56;;;;;;;1.23;0.63;;;;;;;;;;4994860;28;20157;-57
2022/07/13 05:11:22;;;;;;;2.10;0.60;;;;;;;;;;4993952;28;20414;-57
2022/07/13 05:13:48;;;;;;;1.48;0.68;;;;;;;;;;4994290;28;20038;-57
2022/07/13 05:16:14;;;;;;;1.20;0.55;;;;;;;;;;4993536;28;20361;-57
2022/07/13 05:18:40;;;;;;;0.88;0.70;;;;;;;;;;4993226;28;20034;-57
2022/07/13 05:21:06;;;;;;;1.80;0.93;;;;;;;;;;4994161;28;20097;-57
2022/07/13 05:23:32;;;;;;;1.70;0.60;;;;;;;;;;4994065;28;20418;-56
2022/07/13 05:25:58;;;;;;;1.15;0.77;;;;;;;;;;4994195;28;20034;-56
2022/07/13 05:28:24;;;;;;;1.73;0.60;;;;;;;;;;4994279;28;20038;-56
2022/07/13 05:30:50;;;;;;;0.80;0.80;;;;;;;;;;4994013;28;20166;-57
2022/07/13 05:33:18;;;;;;;0.98;0.70;;;;;;;;;;4994540;28;20035;-57
2022/07/13 05:35:44;;;;;;;1.08;0.75;;;;;;;;;;4993285;28;20026;-58
2022/07/13 05:38:10;;;;;;;1.08;0.60;;;;;;;;;;4994636;28;20027;-58
2022/07/13 05:40:36;;;;;;;0.70;0.60;;;;;;;;;;4993648;28;20026;-58
2022/07/13 05:43:02;;;;;;;1.38;0.60;;;;;;;;;;4994502;28;20110;-57
2022/07/13 05:45:28;;;;;;;0.52;0.50;;;;;;;;;;4994083;28;20113;-49
2022/07/13 05:47:54;;;;;;;1.35;0.80;;;;;;;;;;4992782;28;20085;-57
2022/07/13 05:50:20;;;;;;;1.50;0.82;;;;;;;;;;4993598;28;20530;-58
2022/07/13 05:52:46;;;;;;;1.10;0.70;;;;;;;;;;4993747;28;20050;-57
2022/07/13 05:55:12;;;;;;;1.17;0.70;;;;;;;;;;4994050;28;20486;-59
2022/07/13 05:57:39;;;;;;;1.30;0.90;;;;;;;;;;4992239;28;20519;-50
2022/07/13 06:00:06;;;;;;;5.20;0.98;;;;;;;;;;4993818;28;20034;-58
2022/07/13 06:02:32;;;;;;;3.42;0.70;;;;;;;;;;4992574;28;20058;-57
2022/07/13 06:04:58;;;;;;;0.73;0.60;;;;;;;;;;4992785;28;20379;-57
2022/07/13 06:07:24;;;;;;;1.35;0.80;;;;;;;;;;4993707;28;20037;-57
2022/07/13 06:09:50;;;;;;;5.18;1.70;;;;;;;;;;4992082;28;20453;-56
2022/07/13 06:12:16;;;;;;;2.47;1.08;;;;;;;;;;4992946;28;20022;-57
2022/07/13 06:14:42;;;;;;;1.85;0.90;;;;;;;;;;4992190;28;20022;-57
2022/07/13 06:17:08;;;;;;;4.07;0.98;;;;;;;;;;4991936;28;20033;-58
2022/07/13 06:19:34;;;;;;;1.92;0.90;;;;;;;;;;4992877;28;20104;-57
2022/07/13 06:22:00;;;;;;;1.90;1.00;;;;;;;;;;4999436;28;20033;-56
2022/07/13 06:24:26;;;;;;;1.70;0.75;;;;;;;;;;4993867;28;20033;-56
2022/07/13 06:26:52;;;;;;;2.15;1.20;;;;;;;;;;4991807;28;20046;-57
2022/07/13 06:29:18;;;;;;;5.53;1.83;;;;;;;;;;4993168;28;20499;-57
2022/07/13 06:31:44;;;;;;;2.30;1.30;;;;;;;;;;4992240;28;20081;-55
2022/07/13 06:34:10;;;;;;;4.70;1.60;;;;;;;;;;4992093;28;20038;-56
2022/07/13 06:36:38;;;;;;;4.72;1.90;;;;;;;;;;4990280;28;20081;-56
2022/07/13 06:39:04;;;;;;;11.52;2.20;;;;;;;;;;4988895;28;20022;-58
2022/07/13 06:41:30;;;;;;;5.03;1.55;;;;;;;;;;4993342;28;20026;-51
2022/07/13 06:43:56;;;;;;;6.60;1.67;;;;;;;;;;4992995;28;20026;-56
2022/07/13 06:46:23;;;;;;;7.50;2.25;;;;;;;;;;4992497;28;20027;-58
2022/07/13 06:48:49;;;;;;;5.10;1.67;;;;;;;;;;4992600;28;20065;-57
2022/07/13 06:51:15;;;;;;;7.80;2.00;;;;;;;;;;4992178;28;20042;-59
2022/07/13 06:53:41;;;;;;;8.73;1.60;;;;;;;;;;4987061;28;20150;-58
2022/07/13 06:56:08;;;;;;;5.95;1.92;;;;;;;;;;4992110;28;20113;-58
2022/07/13 06:58:33;;;;;;;6.22;1.27;;;;;;;;;;4992355;28;20026;-58
2022/07/13 07:00:59;;;;;;;2.97;1.63;;;;;;;;;;4992783;28;20379;-58
2022/07/13 07:03:25;;;;;;;4.03;1.58;;;;;;;;;;4997777;28;20101;-58
2022/07/13 07:05:51;;;;;;;5.53;2.33;;;;;;;;;;4994678;28;20038;-59
2022/07/13 07:08:18;;;;;;;8.48;2.25;;;;;;;;;;4993915;28;20042;-58
2022/07/13 07:10:44;;;;;;;6.82;1.63;;;;;;;;;;4987183;28;20042;-58
2022/07/13 07:13:11;;;;;;;6.95;1.80;;;;;;;;;;4990612;28;20038;-58
2022/07/13 07:15:37;;;;;;;3.40;1.20;;;;;;;;;;4991942;28;20033;-58
2022/07/13 07:18:03;;;;;;;10.70;2.67;;;;;;;;;;4971828;28;20385;-57
2022/07/13 07:20:29;;;;;;;5.63;1.45;;;;;;;;;;4992251;28;20031;-49
2022/07/13 07:22:55;;;;;;;4.82;1.13;;;;;;;;;;4993924;28;20049;-58
2022/07/13 07:25:21;;;;;;;2.42;1.05;;;;;;;;;;4990069;28;20467;-57
2022/07/13 07:27:48;;;;;;;3.97;1.23;;;;;;;;;;4991750;28;20153;-58
2022/07/13 07:30:14;;;;;;;3.95;1.63;;;;;;;;;;4992571;28;20475;-51
2022/07/13 07:32:40;;;;;;;1.88;0.90;;;;;;;;;;4994403;28;20073;-58
2022/07/13 07:35:07;;;;;;;2.13;1.20;;;;;;;;;;4994540;28;20109;-58
2022/07/13 07:37:34;;;;;;;1.33;0.88;;;;;;;;;;4991471;28;20038;-57
2022/07/13 07:40:00;;;;;;;2.08;0.80;;;;;;;;;;4991420;28;20038;-57
2022/07/13 07:42:26;;;;;;;3.20;0.60;;;;;;;;;;4989193;28;20103;-57
2022/07/13 07:44:52;;;;;;;3.83;0.80;;;;;;;;;;4989663;28;20069;-56
2022/07/13 07:47:22;;;;;;;5.93;0.85;;;;;;;;;;4992248;28;20062;-57
2022/07/13 07:49:48;;;;;;;5.57;1.45;;;;;;;;;;4995325;28;20039;-57
2022/07/13 07:52:14;;;;;;;9.63;1.35;;;;;;;;;;4992167;28;20105;-58
2022/07/13 07:54:40;;;;;;;5.32;1.20;;;;;;;;;;4990704;28;20031;-58
2022/07/13 07:57:06;;;;;;;7.75;1.25;;;;;;;;;;4986416;28;20038;-58
2022/07/13 07:59:32;;;;;;;3.50;1.10;;;;;;;;;;4991255;28;20022;-53
2022/07/13 08:01:59;;;;;;;2.58;1.10;;;;;;;;;;4991887;28;20041;-57
2022/07/13 08:04:25;;;;;;;2.42;0.88;;;;;;;;;;4997120;28;20491;-57
2022/07/13 08:06:51;;;;;;;2.95;0.95;;;;;;;;;;4990509;28;20045;-58
2022/07/13 08:09:17;;;;;;;4.93;0.90;;;;;;;;;;4990516;28;20026;-54
2022/07/13 08:11:43;;;;;;;4.72;1.27;;;;;;;;;;4989412;28;20435;-57
2022/07/13 08:14:09;;;;;;;2.75;1.00;;;;;;;;;;4991007;28;20098;-57
2022/07/13 08:16:35;;;;;;;3.53;1.25;;;;;;;;;;4988696;28;20030;-57
2022/07/13 08:19:01;;;;;;;4.45;1.05;;;;;;;;;;4991735;28;20026;-57
2022/07/13 08:21:27;;;;;;;4.45;1.10;;;;;;;;;;4993005;28;20018;-58
2022/07/13 08:23:54;;;;;;;3.75;1.27;;;;;;;;;;4991423;28;20113;-57
2022/07/13 08:26:20;;;;;;;3.92;0.95;;;;;;;;;;4996437;28;20084;-58
2022/07/13 08:28:47;;;;;;;2.45;1.15;;;;;;;;;;4990261;28;20022;-58
2022/07/13 08:31:13;;;;;;;4.20;1.27;;;;;;;;;;4991049;28;20030;-57
2022/07/13 08:39:10;;;;;;;1.88;0.77;;;;;;;;;;4992066;28;20040;-57
2022/07/13 08:41:36;;;;;;;6.20;1.08;;;;;;;;;;4996854;28;20375;-57
2022/07/13 08:44:02;;;;;;;2.58;1.08;;;;;;;;;;4998291;28;20463;-58
2022/07/13 08:46:28;;;;;;;1.65;1.02;;;;;;;;;;4999266;28;20523;-56
2022/07/13 08:48:55;;;;;;;2.88;1.55;;;;;;;;;;4997833;28;20037;-57
2022/07/13 08:51:22;;;;;;;2.17;1.33;;;;;;;;;;5001494;28;20502;-58
2022/07/13 08:53:51;;;;;;;3.45;1.02;;;;;;;;;;4999625;28;20038;-58
2022/07/13 08:56:17;;;;;;;1.65;0.88;;;;;;;;;;5003935;28;20447;-58
2022/07/13 08:58:43;;;;;;;2.72;1.08;;;;;;;;;;4993794;28;20030;-58
2022/07/13 09:01:09;;;;;;;2.65;0.90;;;;;;;;;;5000866;28;20039;-58
2022/07/13 09:06:38;;;;;;;2.45;0.90;;;;;;;;;;4984207;28;20057;-56
2022/07/13 09:09:05;;;;;;;3.40;1.02;;;;;;;;;;5003094;28;20475;-57
2022/07/13 09:11:31;;;;;;;6.30;2.08;;;;;;;;;;4998783;28;20085;-50
2022/07/13 09:13:57;;;;;;;3.72;1.30;;;;;;;;;;5006413;28;20030;-56
2022/07/13 09:16:25;;;;;;;5.70;1.00;;;;;;;;;;4995745;28;20042;-56
2022/07/13 09:18:51;;;;;;;2.70;0.90;;;;;;;;;;4996454;28;20494;-55
2022/07/13 09:21:18;;;;;;;1.48;0.90;;;;;;;;;;4999370;28;20027;-54
2022/07/13 09:23:45;;;;;;;3.17;1.00;;;;;;;;;;4996846;28;20022;-55
2022/07/13 09:26:11;;;;;;;3.38;0.90;;;;;;;;;;4997616;28;20030;-54
2022/07/13 09:28:44;;;;;;;2.55;1.08;;;;;;;;;;4996108;28;20529;-55
2022/07/13 09:31:11;;;;;;;2.53;0.80;;;;;;;;;;4997643;28;20037;-53
2022/07/13 09:33:38;;;;;;;2.78;1.00;;;;;;;;;;4996637;28;20506;-54
2022/07/13 09:36:14;;;;;;;2.28;1.30;;;;;;;;;;4997398;28;20054;-55
2022/07/13 09:38:47;;;;;;;5.13;0.80;;;;;;;;;;4993681;28;20027;-56
2022/07/13 09:41:16;;;;;;;1.73;0.75;;;;;;;;;;4992187;28;20027;-56
2022/07/13 09:46:57;;;;;;;2.17;0.95;;;;;;;;;;4994364;28;20037;-50
2022/07/13 09:49:30;;;;;;;2.50;0.95;;;;;;;;;;4989076;28;20475;-56
2022/07/13 09:51:59;;;;;;;6.85;0.80;;;;;;;;;;4992940;28;20205;-57
2022/07/13 09:54:29;;;;;;;3.13;1.10;;;;;;;;;;4993534;28;20064;-56
2022/07/13 09:56:58;;;;;;;3.95;0.70;;;;;;;;;;4993113;28;20035;-56
2022/07/13 09:59:25;;;;;;;5.75;0.95;;;;;;;;;;4993780;28;20023;-56
2022/07/13 10:01:52;;;;;;;1.33;0.82;;;;;;;;;;4993479;28;20058;-56
2022/07/13 10:04:18;;;;;;;2.00;0.77;;;;;;;;;;4993854;28;20741;-56
2022/07/13 10:06:44;;;;;;;2.78;0.82;;;;;;;;;;4990150;28;20081;-56
2022/07/13 10:09:11;;;;;;;1.38;0.80;;;;;;;;;;4993632;28;20096;-57
2022/07/13 10:11:37;;;;;;;1.00;0.75;;;;;;;;;;4977577;28;20384;-54
2022/07/13 10:14:04;;;;;;;2.38;1.00;;;;;;;;;;4993159;28;20034;-56
2022/07/13 10:16:31;;;;;;;2.00;0.68;;;;;;;;;;4991842;28;20464;-53
2022/07/13 10:18:59;;;;;;;1.95;0.90;;;;;;;;;;4995789;28;20034;-55
2022/07/13 10:21:33;;;;;;;2.50;0.60;;;;;;;;;;4994261;28;20552;-55
2022/07/13 10:24:00;;;;;;;3.55;0.80;;;;;;;;;;4975749;28;20049;-56
2022/07/13 10:26:26;;;;;;;1.75;0.57;;;;;;;;;;4992979;28;20156;-55
2022/07/13 10:29:26;;;;;;;2.38;0.50;;;;;;;;;;4992409;28;20121;-55
2022/07/13 10:31:59;;;;;;;0.82;0.57;;;;;;;;;;4959526;28;20047;-55
2022/07/13 10:34:45;;;;;;;1.00;0.73;;;;;;;;;;4993304;28;20026;-55
2022/07/13 10:37:11;;;;;;;3.42;0.90;;;;;;;;;;4987270;28;20062;-56
2022/07/13 10:39:37;;;;;;;1.83;0.73;;;;;;;;;;4993022;28;20018;-50
2022/07/13 10:42:04;;;;;;;2.08;0.55;;;;;;;;;;4993620;28;20117;-56
2022/07/13 10:44:30;;;;;;;1.40;0.57;;;;;;;;;;4992828;28;20081;-54
2022/07/13 10:46:56;;;;;;;2.47;0.60;;;;;;;;;;4991981;28;20031;-55
2022/07/13 10:49:32;;;;;;;1.40;0.50;;;;;;;;;;4992958;28;20471;-56
2022/07/13 10:52:16;;;;;;;1.55;0.60;;;;;;;;;;4991547;28;20086;-56
2022/07/13 10:55:13;;;;;;;1.95;0.50;;;;;;;;;;4992030;28;20101;-56
2022/07/13 10:57:44;;;;;;;0.50;0.43;;;;;;;;;;4987903;28;21004;-54
2022/07/13 11:00:22;;;;;;;1.20;0.63;;;;;;;;;;4992174;28;20030;-55
2022/07/13 11:03:07;;;;;;;2.15;0.65;;;;;;;;;;4991131;28;20034;-54
2022/07/13 11:05:35;;;;;;;3.25;1.15;;;;;;;;;;4988332;28;20019;-55
2022/07/13 11:08:12;;;;;;;2.63;0.57;;;;;;;;;;4992243;28;20109;-53
2022/07/13 11:10:38;;;;;;;3.70;0.57;;;;;;;;;;4992021;28;20037;-50
2022/07/13 11:13:09;;;;;;;1.23;0.50;;;;;;;;;;4992617;28;20506;-56
2022/07/13 11:15:52;;;;;;;1.58;0.60;;;;;;;;;;4992957;28;20106;-50
2022/07/13 11:18:24;;;;;;;1.00;0.50;;;;;;;;;;4992094;28;20038;-53
2022/07/13 11:21:10;;;;;;;3.45;0.47;;;;;;;;;;4986461;28;20128;-53
2022/07/13 11:26:39;;;;;;;1.42;0.60;;;;;;;;;;4991779;28;20037;-57
2022/07/13 11:29:24;;;;;;;0.47;0.38;;;;;;;;;;4992164;28;20031;-55
2022/07/13 11:32:00;;;;;;;0.82;0.43;;;;;;;;;;4991094;28;20061;-55
2022/07/13 11:34:29;;;;;;;0.45;0.45;;;;;;;;;;4990210;28;20107;-54
2022/07/13 11:36:57;;;;;;;0.98;0.50;;;;;;;;;;4991417;28;20761;-55
2022/07/13 11:39:27;;;;;;;1.38;0.30;;;;;;;;;;4989622;28;20038;-56
2022/07/13 11:41:53;;;;;;;2.88;0.43;;;;;;;;;;4986063;28;20411;-57
2022/07/13 11:44:22;;;;;;;0.80;0.70;;;;;;;;;;4991919;28;20037;-57
2022/07/13 11:46:48;;;;;;;1.85;0.47;;;;;;;;;;4990550;28;20038;-58
2022/07/13 11:49:14;;;;;;;1.02;0.60;;;;;;;;;;4991196;28;20030;-57
2022/07/13 11:51:43;;;;;;;1.38;0.40;;;;;;;;;;4992529;28;20046;-52
2022/07/13 11:54:11;;;;;;;0.88;0.40;;;;;;;;;;4992363;28;20037;-56
2022/07/13 11:56:46;;;;;;;0.65;0.38;;;;;;;;;;4992463;28;20029;-46
2022/07/13 11:59:12;;;;;;;0.43;0.35;;;;;;;;;;4990838;28;20033;-55
2022/07/13 12:01:38;;;;;;;0.77;0.30;;;;;;;;;;4986629;28;20026;-49
2022/07/13 12:04:05;;;;;;;0.50;0.43;;;;;;;;;;4991838;28;20033;-54
2022/07/13 12:06:31;;;;;;;1.73;0.55;;;;;;;;;;4994146;28;20034;-52
2022/07/13 12:08:57;;;;;;;0.57;0.40;;;;;;;;;;4987740;28;20171;-56
2022/07/13 12:11:23;;;;;;;1.83;0.40;;;;;;;;;;4991283;28;20466;-57
2022/07/13 12:13:49;;;;;;;1.10;0.60;;;;;;;;;;4991296;28;20038;-56
2022/07/13 12:16:16;;;;;;;1.05;0.63;;;;;;;;;;4991610;28;20037;-56
2022/07/13 12:18:58;;;;;;;0.55;0.43;;;;;;;;;;4989960;28;20038;-56
2022/07/13 12:21:25;;;;;;;1.35;0.50;;;;;;;;;;4991574;28;20054;-56
2022/07/13 12:23:51;;;;;;;0.63;0.50;;;;;;;;;;4990051;28;20019;-54
2022/07/13 12:26:17;;;;;;;0.38;0.32;;;;;;;;;;4998154;28;20398;-56
2022/07/13 12:28:43;;;;;;;1.52;0.40;;;;;;;;;;4986125;28;20030;-55
2022/07/13 12:31:09;;;;;;;0.50;0.40;;;;;;;;;;4986256;28;20022;-55
2022/07/13 12:33:45;;;;;;;2.10;0.40;;;;;;;;;;4993737;28;20030;-56
2022/07/13 12:36:12;;;;;;;0.70;0.30;;;;;;;;;;4988140;28;20097;-57
2022/07/13 12:38:56;;;;;;;0.82;0.45;;;;;;;;;;4987012;28;20100;-49
2022/07/13 12:41:30;;;;;;;0.57;0.30;;;;;;;;;;4989424;28;20030;-57
2022/07/13 12:43:57;;;;;;;1.92;0.50;;;;;;;;;;4990826;28;20034;-55
2022/07/13 12:46:23;;;;;;;0.75;0.38;;;;;;;;;;4990462;28;20479;-57
2022/07/13 12:48:58;;;;;;;0.55;0.40;;;;;;;;;;4991510;28;20057;-57
2022/07/13 12:51:24;;;;;;;1.95;0.50;;;;;;;;;;4989649;28;20054;-57
2022/07/13 12:53:56;;;;;;;0.20;0.20;;;;;;;;;;4989823;28;20022;-57
2022/07/13 12:56:26;;;;;;;0.77;0.30;;;;;;;;;;4991175;28;20030;-56
2022/07/13 12:58:57;;;;;;;1.23;0.40;;;;;;;;;;4990707;28;20034;-56
2022/07/13 13:01:27;;;;;;;1.53;0.70;;;;;;;;;;4991095;28;20026;-56
2022/07/13 13:03:54;;;;;;;0.52;0.40;;;;;;;;;;4982742;28;21720;-56
2022/07/13 13:06:19;;;;;;;1.50;0.40;;;;;;;;;;4990328;28;20513;-56
2022/07/13 13:08:45;;;;;;;1.88;0.57;;;;;;;;;;4989803;28;20023;-55
2022/07/13 13:11:11;;;;;;;0.28;0.25;;;;;;;;;;4989571;28;20610;-55
2022/07/13 13:13:38;;;;;;;1.30;1.08;;;;;;;;;;4989633;28;20026;-54
2022/07/13 13:16:04;;;;;;;2.20;0.43;;;;;;;;;;4990151;28;20022;-55
2022/07/13 13:18:30;;;;;;;0.70;0.47;;;;;;;;;;4991200;28;20030;-55
2022/07/13 13:20:55;;;;;;;0.52;0.40;;;;;;;;;;4990412;28;20446;-56
2022/07/13 13:23:21;;;;;;;0.47;0.40;;;;;;;;;;4995100;28;20065;-56
2022/07/13 13:25:47;;;;;;;0.70;0.30;;;;;;;;;;4993804;28;20042;-56
2022/07/13 13:28:13;;;;;;;0.57;0.40;;;;;;;;;;4994975;28;20034;-56
2022/07/13 13:30:46;;;;;;;2.35;0.30;;;;;;;;;;4992158;28;20127;-49
2022/07/13 13:33:12;;;;;;;1.63;0.30;;;;;;;;;;4994807;28;20371;-55
2022/07/13 13:35:38;;;;;;;0.80;0.40;;;;;;;;;;4994845;28;20534;-57
2022/07/13 13:38:04;;;;;;;1.63;0.25;;;;;;;;;;4987903;28;20038;-55
2022/07/13 13:40:30;;;;;;;2.55;0.65;;;;;;;;;;4993616;28;20089;-56
2022/07/13 13:42:56;;;;;;;0.82;0.38;;;;;;;;;;4993697;28;20026;-56
2022/07/13 13:45:22;;;;;;;0.47;0.40;;;;;;;;;;4994580;28;20077;-55
2022/07/13 13:47:48;;;;;;;0.30;0.30;;;;;;;;;;4993021;28;20480;-56
2022/07/13 13:50:14;;;;;;;0.95;0.30;;;;;;;;;;4997007;28;20053;-55
2022/07/13 13:52:41;;;;;;;0.30;0.30;;;;;;;;;;5013816;28;20018;-48
2022/07/13 13:55:08;;;;;;;0.50;0.30;;;;;;;;;;5013369;28;20018;-55
2022/07/13 13:57:34;;;;;;;1.67;1.02;;;;;;;;;;5012613;28;20057;-59
2022/07/13 14:00:00;;;;;;;3.00;0.30;;;;;;;;;;5012841;28;20626;-55
2022/07/13 14:02:26;;;;;;;0.63;0.30;;;;;;;;;;5012791;28;20502;-55
2022/07/13 14:04:53;;;;;;;1.75;0.38;;;;;;;;;;5013180;28;20030;-55
2022/07/13 14:07:19;;;;;;;0.88;0.50;;;;;;;;;;5012238;28;20543;-56
2022/07/13 14:09:45;;;;;;;0.90;0.43;;;;;;;;;;5012565;28;20030;-55
2022/07/13 14:12:11;;;;;;;1.58;0.63;;;;;;;;;;5012155;28;20013;-55
2022/07/13 14:14:37;;;;;;;0.75;0.50;;;;;;;;;;5013680;28;20585;-57
2022/07/13 14:17:03;;;;;;;0.75;0.45;;;;;;;;;;5012025;28;20026;-55
2022/07/13 14:19:29;;;;;;;1.25;0.77;;;;;;;;;;5012104;28;20395;-56
2022/07/13 14:21:56;;;;;;;4.22;0.57;;;;;;;;;;5012800;28;20466;-57
2022/07/13 14:24:23;;;;;;;0.93;0.50;;;;;;;;;;5012799;28;20052;-56
2022/07/13 14:26:50;;;;;;;0.50;0.40;;;;;;;;;;5012002;28;20042;-56
2022/07/13 14:29:16;;;;;;;0.40;0.40;;;;;;;;;;5011682;28;20037;-54
2022/07/13 14:31:42;;;;;;;2.45;0.50;;;;;;;;;;5012606;28;20366;-49
2022/07/13 14:34:08;;;;;;;1.13;0.70;;;;;;;;;;5009685;28;20104;-56
2022/07/13 14:36:34;;;;;;;1.23;0.57;;;;;;;;;;5012886;28;20022;-56
2022/07/13 14:39:00;;;;;;;1.63;0.40;;;;;;;;;;5011274;28;20497;-52
2022/07/13 14:41:26;;;;;;;0.60;0.40;;;;;;;;;;5012636;28;20026;-55
2022/07/13 14:43:52;;;;;;;0.85;0.50;;;;;;;;;;5012441;28;20034;-55
2022/07/13 14:46:22;;;;;;;1.15;0.40;;;;;;;;;;5012765;28;20398;-55
2022/07/13 14:48:49;;;;;;;0.90;0.35;;;;;;;;;;5005870;28;20073;-55
2022/07/13 14:51:15;;;;;;;0.65;0.50;;;;;;;;;;5000268;28;20134;-54
2022/07/13 14:53:41;;;;;;;2.05;0.40;;;;;;;;;;4993101;28;20097;-55
2022/07/13 14:56:07;;;;;;;0.70;0.50;;;;;;;;;;4992023;28;20077;-55
2022/07/13 14:58:33;;;;;;;0.50;0.40;;;;;;;;;;4992455;28;20108;-54